This is the latest recevied weather packets stored in our database for station/object EA3CO-11. If no packets are shown the sender has not sent any weather packets the latest 10 day(s).
| Time | Temp. | Humidity | Pressure | Rain* | Wind** | Luminosity | Snow |
|---|---|---|---|---|---|---|---|
| 1777500157 | 15.56° C | 100% | 1017.4 hPa | - | - | - | - |
| 1777499256 | 15.56° C | 100% | 1017.4 hPa | - | - | - | - |
| 1777498356 | 15.56° C | 100% | 1017.3 hPa | - | - | - | - |
| 1777497456 | 15.56° C | 100% | 1017.4 hPa | - | - | - | - |
| 1777496556 | 16.11° C | 100% | 1017.2 hPa | - | - | - | - |
| 1777495656 | 16.11° C | 100% | 1017.2 hPa | - | - | - | - |
| 1777495397 | 15.56° C | 100% | 1017.3 hPa | - | - | - | - |
| 1777493856 | 15.56° C | 100% | 1017.2 hPa | - | - | - | - |
| 1777492956 | 16.11° C | 100% | 1017 hPa | - | - | - | - |
| 1777492056 | 15.56° C | 100% | 1016.8 hPa | - | - | - | - |
| 1777491155 | 15.56° C | 99% | 1016.6 hPa | - | - | - | - |
| 1777490255 | 16.11° C | 95% | 1016.1 hPa | - | - | - | - |
| 1777489355 | 16.11° C | 91% | 1015.9 hPa | - | - | - | - |
| 1777488455 | 17.22° C | 80% | 1015.7 hPa | - | - | - | - |
| 1777487555 | 17.22° C | 81% | 1015.3 hPa | - | - | - | - |
| 1777486655 | 17.22° C | 80% | 1015 hPa | - | - | - | - |
| 1777485755 | 17.22° C | 81% | 1014.9 hPa | - | - | - | - |
| 1777484855 | 17.78° C | 76% | 1015 hPa | - | - | - | - |
| 1777483955 | 17.78° C | 72% | 1015 hPa | - | - | - | - |
| 1777483054 | 18.33° C | 70% | 1015.1 hPa | - | - | - | - |
| 1777482154 | 21.11° C | 61% | 1015 hPa | - | - | - | - |
| 1777481254 | 18.33° C | 73% | 1014.9 hPa | - | - | - | - |
| 1777480354 | 18.33° C | 71% | 1014.9 hPa | - | - | - | - |
| 1777479454 | 19.44° C | 68% | 1014.8 hPa | - | - | - | - |
| 1777478554 | 19.44° C | 67% | 1014.7 hPa | - | - | - | - |
* Rain since midnight (hover to see other rain measurements)
** Current wind speed in m/s (hover to see current wind gust speed)